sensor_id;sensor_type;location;lat;lon;timestamp;pressure;altitude;pressure_sealevel;temperature;humidity
50854;BME280;44154;45.506;-122.806;2023-02-14T00:00:19;100578.81;;;24.43;35.98
50854;BME280;44154;45.506;-122.806;2023-02-14T00:02:47;100579.81;;;24.91;35.20
50854;BME280;44154;45.506;-122.806;2023-02-14T00:05:14;100563.91;;;24.88;35.02
50854;BME280;44154;45.506;-122.806;2023-02-14T00:07:40;100573.38;;;24.75;35.41
50854;BME280;44154;45.506;-122.806;2023-02-14T00:10:07;100562.50;;;24.53;35.55
50854;BME280;44154;45.506;-122.806;2023-02-14T00:12:34;100543.69;;;24.30;35.76
50854;BME280;44154;45.506;-122.806;2023-02-14T00:15:00;100550.19;;;24.23;36.07
50854;BME280;44154;45.506;-122.806;2023-02-14T00:17:44;100549.53;;;24.11;36.94
50854;BME280;44154;45.506;-122.806;2023-02-14T00:20:11;100555.72;;;24.01;37.98
50854;BME280;44154;45.506;-122.806;2023-02-14T00:22:37;100526.22;;;23.81;38.37
50854;BME280;44154;45.506;-122.806;2023-02-14T00:25:03;100536.06;;;23.82;38.02
50854;BME280;44154;45.506;-122.806;2023-02-14T00:27:29;100534.34;;;23.76;37.76
50854;BME280;44154;45.506;-122.806;2023-02-14T00:29:56;100533.72;;;23.69;37.68
50854;BME280;44154;45.506;-122.806;2023-02-14T00:32:28;100542.44;;;23.66;37.59
50854;BME280;44154;45.506;-122.806;2023-02-14T00:34:55;100534.25;;;23.88;37.33
50854;BME280;44154;45.506;-122.806;2023-02-14T00:37:22;100552.31;;;24.44;36.57
50854;BME280;44154;45.506;-122.806;2023-02-14T00:39:48;100559.50;;;24.87;35.54
50854;BME280;44154;45.506;-122.806;2023-02-14T00:42:14;100562.25;;;24.87;35.12
50854;BME280;44154;45.506;-122.806;2023-02-14T00:44:41;100565.13;;;24.70;35.51
50854;BME280;44154;45.506;-122.806;2023-02-14T00:47:07;100571.47;;;24.49;35.80
50854;BME280;44154;45.506;-122.806;2023-02-14T00:49:33;100580.38;;;24.34;36.37
50854;BME280;44154;45.506;-122.806;2023-02-14T00:51:59;100595.25;;;24.16;36.79
50854;BME280;44154;45.506;-122.806;2023-02-14T00:54:26;100589.34;;;24.02;36.99
50854;BME280;44154;45.506;-122.806;2023-02-14T00:56:52;100585.66;;;23.91;37.27
50854;BME280;44154;45.506;-122.806;2023-02-14T00:59:18;100598.91;;;23.82;37.36
50854;BME280;44154;45.506;-122.806;2023-02-14T01:01:44;100581.88;;;23.75;37.40
50854;BME280;44154;45.506;-122.806;2023-02-14T01:04:10;100563.22;;;23.67;37.44
50854;BME280;44154;45.506;-122.806;2023-02-14T01:06:36;100542.31;;;23.55;37.70
50854;BME280;44154;45.506;-122.806;2023-02-14T01:09:03;100548.22;;;23.69;37.15
50854;BME280;44154;45.506;-122.806;2023-02-14T01:11:30;100562.44;;;24.16;36.75
50854;BME280;44154;45.506;-122.806;2023-02-14T01:13:57;100559.81;;;24.58;35.76
50854;BME280;44154;45.506;-122.806;2023-02-14T01:16:25;100569.31;;;24.78;35.11
50854;BME280;44154;45.506;-122.806;2023-02-14T01:18:51;100569.78;;;24.70;35.23
50854;BME280;44154;45.506;-122.806;2023-02-14T01:21:23;100574.78;;;24.51;35.20
50854;BME280;44154;45.506;-122.806;2023-02-14T01:23:55;100575.44;;;24.31;35.40
50854;BME280;44154;45.506;-122.806;2023-02-14T01:26:23;100590.00;;;24.14;35.84
50854;BME280;44154;45.506;-122.806;2023-02-14T01:28:50;100591.00;;;24.03;36.03
50854;BME280;44154;45.506;-122.806;2023-02-14T01:31:17;100594.19;;;23.95;36.29
50854;BME280;44154;45.506;-122.806;2023-02-14T01:33:45;100601.41;;;23.84;36.20
50854;BME280;44154;45.506;-122.806;2023-02-14T01:36:27;100634.66;;;23.76;36.24
50854;BME280;44154;45.506;-122.806;2023-02-14T01:38:56;100636.25;;;23.71;36.34
50854;BME280;44154;45.506;-122.806;2023-02-14T01:41:27;100643.03;;;23.69;36.49
50854;BME280;44154;45.506;-122.806;2023-02-14T01:46:30;100638.03;;;24.05;36.13
50854;BME280;44154;45.506;-122.806;2023-02-14T01:49:04;100615.84;;;24.51;35.20
50854;BME280;44154;45.506;-122.806;2023-02-14T01:51:33;100622.47;;;24.87;34.78
50854;BME280;44154;45.506;-122.806;2023-02-14T01:54:02;100632.28;;;24.83;34.40
50854;BME280;44154;45.506;-122.806;2023-02-14T01:56:42;100626.69;;;24.68;34.87
50854;BME280;44154;45.506;-122.806;2023-02-14T01:59:14;100630.59;;;24.50;34.98
50854;BME280;44154;45.506;-122.806;2023-02-14T02:01:42;100630.16;;;24.36;35.22
50854;BME280;44154;45.506;-122.806;2023-02-14T02:04:14;100623.44;;;24.21;35.55
50854;BME280;44154;45.506;-122.806;2023-02-14T02:06:43;100616.25;;;24.10;35.70
50854;BME280;44154;45.506;-122.806;2023-02-14T02:11:42;100624.25;;;23.95;35.94
50854;BME280;44154;45.506;-122.806;2023-02-14T02:14:17;100629.38;;;23.91;36.08
50854;BME280;44154;45.506;-122.806;2023-02-14T02:16:57;100626.34;;;23.87;36.08
50854;BME280;44154;45.506;-122.806;2023-02-14T02:22:03;100614.16;;;23.78;36.18
50854;BME280;44154;45.506;-122.806;2023-02-14T02:38:40;100629.66;;;23.89;36.63
50854;BME280;44154;45.506;-122.806;2023-02-14T02:44:12;100647.13;;;23.49;37.42
50854;BME280;44154;45.506;-122.806;2023-02-14T02:58:50;100702.41;;;23.56;37.35
50854;BME280;44154;45.506;-122.806;2023-02-14T03:01:20;100685.81;;;23.97;36.59
50854;BME280;44154;45.506;-122.806;2023-02-14T03:03:52;100695.53;;;24.10;36.45
50854;BME280;44154;45.506;-122.806;2023-02-14T03:06:39;100685.84;;;24.02;36.70
50854;BME280;44154;45.506;-122.806;2023-02-14T03:12:44;100691.56;;;23.62;37.35
50854;BME280;44154;45.506;-122.806;2023-02-14T03:20:25;100704.56;;;23.37;37.66
50854;BME280;44154;45.506;-122.806;2023-02-14T03:23:17;100695.47;;;23.32;38.13
50854;BME280;44154;45.506;-122.806;2023-02-14T03:28:29;100707.41;;;23.26;38.09
50854;BME280;44154;45.506;-122.806;2023-02-14T03:34:01;100739.34;;;24.37;36.30
50854;BME280;44154;45.506;-122.806;2023-02-14T03:36:36;100750.06;;;24.44;35.59
50854;BME280;44154;45.506;-122.806;2023-02-14T03:40:05;100755.81;;;24.20;36.26
50854;BME280;44154;45.506;-122.806;2023-02-14T03:42:24;100772.69;;;23.95;36.15
50854;BME280;44154;45.506;-122.806;2023-02-14T03:44:53;100733.19;;;23.69;36.80
50854;BME280;44154;45.506;-122.806;2023-02-14T03:47:25;100736.19;;;23.50;37.25
50854;BME280;44154;45.506;-122.806;2023-02-14T03:49:58;100756.88;;;23.46;36.99
50854;BME280;44154;45.506;-122.806;2023-02-14T03:52:28;100772.53;;;23.34;37.07
50854;BME280;44154;45.506;-122.806;2023-02-14T03:54:56;100779.41;;;23.19;37.48
50854;BME280;44154;45.506;-122.806;2023-02-14T03:58:15;100785.34;;;23.33;37.73
50854;BME280;44154;45.506;-122.806;2023-02-14T04:00:17;100776.25;;;23.62;37.57
50854;BME280;44154;45.506;-122.806;2023-02-14T04:02:48;100776.81;;;23.98;37.06
50854;BME280;44154;45.506;-122.806;2023-02-14T04:05:23;100787.13;;;24.13;36.16
50854;BME280;44154;45.506;-122.806;2023-02-14T04:07:50;100798.44;;;23.99;36.36
50854;BME280;44154;45.506;-122.806;2023-02-14T04:10:18;100808.19;;;23.78;36.82
50854;BME280;44154;45.506;-122.806;2023-02-14T04:12:46;100782.47;;;23.57;37.28
50854;BME280;44154;45.506;-122.806;2023-02-14T04:15:13;100794.81;;;23.43;37.13
50854;BME280;44154;45.506;-122.806;2023-02-14T04:17:39;100804.22;;;23.35;37.12
50854;BME280;44154;45.506;-122.806;2023-02-14T04:20:25;100804.97;;;23.30;37.30
50854;BME280;44154;45.506;-122.806;2023-02-14T04:22:51;100807.38;;;23.27;37.15
50854;BME280;44154;45.506;-122.806;2023-02-14T04:25:18;100823.59;;;23.33;37.76
50854;BME280;44154;45.506;-122.806;2023-02-14T04:27:46;100827.25;;;23.73;37.27
50854;BME280;44154;45.506;-122.806;2023-02-14T04:30:12;100830.59;;;24.09;36.80
50854;BME280;44154;45.506;-122.806;2023-02-14T04:32:39;100813.22;;;24.37;35.75
50854;BME280;44154;45.506;-122.806;2023-02-14T04:35:06;100803.13;;;24.43;35.55
50854;BME280;44154;45.506;-122.806;2023-02-14T04:37:32;100804.66;;;24.34;35.45
50854;BME280;44154;45.506;-122.806;2023-02-14T04:39:59;100810.75;;;24.19;35.45
50854;BME280;44154;45.506;-122.806;2023-02-14T04:42:25;100816.31;;;24.07;35.61
50854;BME280;44154;45.506;-122.806;2023-02-14T04:44:51;100810.66;;;23.92;35.96
50854;BME280;44154;45.506;-122.806;2023-02-14T04:47:18;100802.72;;;23.78;36.12
50854;BME280;44154;45.506;-122.806;2023-02-14T04:49:44;100783.69;;;23.66;36.32
50854;BME280;44154;45.506;-122.806;2023-02-14T04:52:10;100794.22;;;23.58;36.50
50854;BME280;44154;45.506;-122.806;2023-02-14T04:54:37;100783.69;;;23.49;36.61
50854;BME280;44154;45.506;-122.806;2023-02-14T04:57:03;100761.53;;;23.46;37.12
50854;BME280;44154;45.506;-122.806;2023-02-14T04:59:30;100792.66;;;23.96;36.86
50854;BME280;44154;45.506;-122.806;2023-02-14T05:01:56;100792.19;;;24.43;36.08
50854;BME280;44154;45.506;-122.806;2023-02-14T05:04:22;100789.53;;;24.70;35.28
50854;BME280;44154;45.506;-122.806;2023-02-14T05:06:49;100768.13;;;24.62;35.06
50854;BME280;44154;45.506;-122.806;2023-02-14T05:09:15;100778.16;;;24.56;34.98
50854;BME280;44154;45.506;-122.806;2023-02-14T05:11:41;100782.00;;;24.38;35.29
50854;BME280;44154;45.506;-122.806;2023-02-14T05:14:08;100790.84;;;24.23;35.53
50854;BME280;44154;45.506;-122.806;2023-02-14T05:16:34;100795.53;;;24.06;35.52
50854;BME280;44154;45.506;-122.806;2023-02-14T05:19:00;100787.69;;;23.93;36.02
50854;BME280;44154;45.506;-122.806;2023-02-14T05:21:26;100793.47;;;23.79;36.03
50854;BME280;44154;45.506;-122.806;2023-02-14T05:23:53;100803.69;;;23.67;36.26
50854;BME280;44154;45.506;-122.806;2023-02-14T05:26:19;100796.94;;;23.58;36.40
50854;BME280;44154;45.506;-122.806;2023-02-14T05:28:45;100787.44;;;23.43;36.85
50854;BME280;44154;45.506;-122.806;2023-02-14T05:31:11;100808.66;;;23.87;36.84
50854;BME280;44154;45.506;-122.806;2023-02-14T05:33:37;100806.19;;;24.24;36.25
50854;BME280;44154;45.506;-122.806;2023-02-14T05:36:04;100800.22;;;24.50;35.82
50854;BME280;44154;45.506;-122.806;2023-02-14T05:38:30;100802.91;;;24.67;35.05
50854;BME280;44154;45.506;-122.806;2023-02-14T05:40:58;100806.59;;;24.55;35.31
50854;BME280;44154;45.506;-122.806;2023-02-14T05:43:24;100794.38;;;24.41;35.18
50854;BME280;44154;45.506;-122.806;2023-02-14T05:45:51;100804.53;;;24.23;35.57
50854;BME280;44154;45.506;-122.806;2023-02-14T05:48:18;100825.13;;;24.09;35.59
50854;BME280;44154;45.506;-122.806;2023-02-14T05:50:45;100817.53;;;23.94;35.93
50854;BME280;44154;45.506;-122.806;2023-02-14T05:53:12;100809.34;;;23.82;36.13
50854;BME280;44154;45.506;-122.806;2023-02-14T05:55:38;100808.13;;;23.73;36.40
50854;BME280;44154;45.506;-122.806;2023-02-14T05:58:04;100812.94;;;23.66;36.66
50854;BME280;44154;45.506;-122.806;2023-02-14T06:00:31;100812.03;;;23.60;36.68
50854;BME280;44154;45.506;-122.806;2023-02-14T06:02:57;100810.47;;;23.81;37.19
50854;BME280;44154;45.506;-122.806;2023-02-14T06:05:23;100800.41;;;24.04;36.99
50854;BME280;44154;45.506;-122.806;2023-02-14T06:07:49;100814.06;;;24.43;36.29
50854;BME280;44154;45.506;-122.806;2023-02-14T06:10:17;100823.56;;;24.57;35.62
50854;BME280;44154;45.506;-122.806;2023-02-14T06:12:44;100815.56;;;24.51;35.36
50854;BME280;44154;45.506;-122.806;2023-02-14T06:15:10;100826.03;;;24.37;35.51
50854;BME280;44154;45.506;-122.806;2023-02-14T06:17:36;100807.19;;;24.18;35.66
50854;BME280;44154;45.506;-122.806;2023-02-14T06:20:04;100797.13;;;24.02;35.96
50854;BME280;44154;45.506;-122.806;2023-02-14T06:22:30;100804.03;;;23.87;36.01
50854;BME280;44154;45.506;-122.806;2023-02-14T06:24:56;100810.94;;;23.78;36.23
50854;BME280;44154;45.506;-122.806;2023-02-14T06:27:22;100835.13;;;23.69;36.68
50854;BME280;44154;45.506;-122.806;2023-02-14T06:29:48;100807.53;;;23.71;36.51
50854;BME280;44154;45.506;-122.806;2023-02-14T06:32:15;100802.41;;;23.75;36.61
50854;BME280;44154;45.506;-122.806;2023-02-14T06:34:41;100808.31;;;24.00;37.59
50854;BME280;44154;45.506;-122.806;2023-02-14T06:37:07;100797.91;;;24.19;36.88
50854;BME280;44154;45.506;-122.806;2023-02-14T06:39:33;100807.75;;;24.59;35.75
50854;BME280;44154;45.506;-122.806;2023-02-14T06:41:59;100802.47;;;24.75;35.06
50854;BME280;44154;45.506;-122.806;2023-02-14T06:44:25;100794.81;;;24.77;34.45
50854;BME280;44154;45.506;-122.806;2023-02-14T06:46:51;100791.53;;;24.75;34.41
50854;BME280;44154;45.506;-122.806;2023-02-14T06:49:17;100805.66;;;24.67;34.48
50854;BME280;44154;45.506;-122.806;2023-02-14T06:51:44;100805.59;;;24.62;35.91
50854;BME280;44154;45.506;-122.806;2023-02-14T06:54:10;100805.13;;;24.48;38.61
50854;BME280;44154;45.506;-122.806;2023-02-14T06:56:36;100807.97;;;24.36;36.86
50854;BME280;44154;45.506;-122.806;2023-02-14T06:59:02;100799.88;;;24.24;35.78
50854;BME280;44154;45.506;-122.806;2023-02-14T07:01:28;100806.63;;;24.16;36.10
50854;BME280;44154;45.506;-122.806;2023-02-14T07:03:54;100800.75;;;24.07;36.47
50854;BME280;44154;45.506;-122.806;2023-02-14T07:06:20;100799.25;;;24.00;37.17
50854;BME280;44154;45.506;-122.806;2023-02-14T07:08:47;100795.41;;;23.96;37.72
50854;BME280;44154;45.506;-122.806;2023-02-14T07:11:14;100784.88;;;23.87;37.66
50854;BME280;44154;45.506;-122.806;2023-02-14T07:13:40;100778.78;;;23.85;38.22
50854;BME280;44154;45.506;-122.806;2023-02-14T07:16:09;100771.09;;;23.82;38.04
50854;BME280;44154;45.506;-122.806;2023-02-14T07:18:35;100771.59;;;23.79;37.58
50854;BME280;44154;45.506;-122.806;2023-02-14T07:21:01;100753.22;;;23.75;37.30
50854;BME280;44154;45.506;-122.806;2023-02-14T07:23:27;100735.13;;;23.68;37.50
50854;BME280;44154;45.506;-122.806;2023-02-14T07:25:56;100737.44;;;23.60;37.95
50854;BME280;44154;45.506;-122.806;2023-02-14T07:28:22;100736.53;;;23.54;38.04
50854;BME280;44154;45.506;-122.806;2023-02-14T07:30:48;100743.81;;;23.48;38.18
50854;BME280;44154;45.506;-122.806;2023-02-14T07:33:15;100745.38;;;23.44;38.10
50854;BME280;44154;45.506;-122.806;2023-02-14T07:35:41;100740.69;;;23.40;38.37
50854;BME280;44154;45.506;-122.806;2023-02-14T07:38:07;100734.88;;;23.36;39.14
50854;BME280;44154;45.506;-122.806;2023-02-14T07:40:33;100732.91;;;23.31;39.56
50854;BME280;44154;45.506;-122.806;2023-02-14T07:42:59;100729.25;;;23.26;39.86
50854;BME280;44154;45.506;-122.806;2023-02-14T07:45:26;100745.94;;;23.29;39.93
50854;BME280;44154;45.506;-122.806;2023-02-14T07:47:53;100751.09;;;23.26;39.86
50854;BME280;44154;45.506;-122.806;2023-02-14T07:50:21;100740.25;;;23.14;39.46
50854;BME280;44154;45.506;-122.806;2023-02-14T07:52:48;100759.69;;;23.17;38.60
50854;BME280;44154;45.506;-122.806;2023-02-14T07:55:14;100739.19;;;23.03;39.84
50854;BME280;44154;45.506;-122.806;2023-02-14T07:57:41;100735.38;;;23.33;39.57
50854;BME280;44154;45.506;-122.806;2023-02-14T08:00:07;100733.94;;;23.81;38.96
50854;BME280;44154;45.506;-122.806;2023-02-14T08:02:34;100731.00;;;24.27;38.37
50854;BME280;44154;45.506;-122.806;2023-02-14T08:05:00;100722.53;;;24.29;37.71
50854;BME280;44154;45.506;-122.806;2023-02-14T08:07:26;100720.41;;;24.09;38.32
50854;BME280;44154;45.506;-122.806;2023-02-14T08:09:52;100697.50;;;23.76;38.30
50854;BME280;44154;45.506;-122.806;2023-02-14T08:12:18;100713.00;;;23.70;38.34
50854;BME280;44154;45.506;-122.806;2023-02-14T08:15:03;100709.47;;;23.52;39.32
50854;BME280;44154;45.506;-122.806;2023-02-14T08:17:48;100710.88;;;23.38;39.18
50854;BME280;44154;45.506;-122.806;2023-02-14T08:20:14;100719.50;;;23.30;38.84
50854;BME280;44154;45.506;-122.806;2023-02-14T08:22:40;100721.88;;;23.26;40.49
50854;BME280;44154;45.506;-122.806;2023-02-14T08:25:07;100725.34;;;23.21;40.95
50854;BME280;44154;45.506;-122.806;2023-02-14T08:27:33;100692.78;;;23.03;41.01
50854;BME280;44154;45.506;-122.806;2023-02-14T08:29:59;100700.47;;;23.06;41.00
50854;BME280;44154;45.506;-122.806;2023-02-14T08:32:25;100700.41;;;23.01;40.42
50854;BME280;44154;45.506;-122.806;2023-02-14T08:34:51;100699.25;;;22.97;40.05
50854;BME280;44154;45.506;-122.806;2023-02-14T08:37:17;100704.50;;;23.32;39.44
50854;BME280;44154;45.506;-122.806;2023-02-14T08:39:44;100695.69;;;23.81;38.10
50854;BME280;44154;45.506;-122.806;2023-02-14T08:42:10;100698.00;;;24.12;37.68
50854;BME280;44154;45.506;-122.806;2023-02-14T08:44:37;100681.78;;;24.05;37.31
50854;BME280;44154;45.506;-122.806;2023-02-14T08:47:03;100680.75;;;23.89;38.01
50854;BME280;44154;45.506;-122.806;2023-02-14T08:49:29;100668.25;;;23.76;38.15
50854;BME280;44154;45.506;-122.806;2023-02-14T08:51:55;100669.16;;;23.60;38.50
50854;BME280;44154;45.506;-122.806;2023-02-14T08:54:22;100654.59;;;23.37;39.05
50854;BME280;44154;45.506;-122.806;2023-02-14T08:56:48;100665.69;;;23.30;39.69
50854;BME280;44154;45.506;-122.806;2023-02-14T08:59:14;100663.56;;;23.15;39.04
50854;BME280;44154;45.506;-122.806;2023-02-14T09:01:40;100657.50;;;23.13;38.46
50854;BME280;44154;45.506;-122.806;2023-02-14T09:04:06;100659.06;;;23.09;39.09
50854;BME280;44154;45.506;-122.806;2023-02-14T09:06:32;100660.03;;;23.03;39.09
50854;BME280;44154;45.506;-122.806;2023-02-14T09:09:01;100658.88;;;22.99;38.83
50854;BME280;44154;45.506;-122.806;2023-02-14T09:11:27;100659.97;;;23.32;38.83
50854;BME280;44154;45.506;-122.806;2023-02-14T09:13:53;100639.81;;;23.55;37.98
50854;BME280;44154;45.506;-122.806;2023-02-14T09:16:21;100658.25;;;24.04;37.45
50854;BME280;44154;45.506;-122.806;2023-02-14T09:18:48;100658.00;;;24.05;37.99
50854;BME280;44154;45.506;-122.806;2023-02-14T09:21:17;100658.53;;;23.85;37.91
50854;BME280;44154;45.506;-122.806;2023-02-14T09:23:44;100646.53;;;23.64;38.35
50854;BME280;44154;45.506;-122.806;2023-02-14T09:26:11;100646.56;;;23.47;38.84
50854;BME280;44154;45.506;-122.806;2023-02-14T09:28:38;100625.31;;;23.32;38.66
50854;BME280;44154;45.506;-122.806;2023-02-14T09:31:12;100624.06;;;23.23;38.88
50854;BME280;44154;45.506;-122.806;2023-02-14T09:33:39;100611.81;;;23.09;38.94
50854;BME280;44154;45.506;-122.806;2023-02-14T09:36:24;100584.63;;;22.97;38.96
50854;BME280;44154;45.506;-122.806;2023-02-14T09:39:09;100592.81;;;22.97;38.72
50854;BME280;44154;45.506;-122.806;2023-02-14T09:41:57;100598.00;;;22.98;38.89
50854;BME280;44154;45.506;-122.806;2023-02-14T09:44:40;100607.41;;;23.42;37.69
50854;BME280;44154;45.506;-122.806;2023-02-14T09:49:57;100566.41;;;24.03;36.79
50854;BME280;44154;45.506;-122.806;2023-02-14T09:52:27;100573.50;;;24.04;35.95
50854;BME280;44154;45.506;-122.806;2023-02-14T09:54:57;100532.84;;;23.63;35.62
50854;BME280;44154;45.506;-122.806;2023-02-14T10:00:45;100571.16;;;23.46;36.04
50854;BME280;44154;45.506;-122.806;2023-02-14T10:12:00;100570.47;;;23.00;37.55
50854;BME280;44154;45.506;-122.806;2023-02-14T10:14:33;100561.56;;;22.88;40.31
50854;BME280;44154;45.506;-122.806;2023-02-14T10:17:38;100552.28;;;22.89;43.50
50854;BME280;44154;45.506;-122.806;2023-02-14T10:23:03;100547.50;;;23.35;41.26
50854;BME280;44154;45.506;-122.806;2023-02-14T10:25:40;100545.44;;;23.64;39.19
50854;BME280;44154;45.506;-122.806;2023-02-14T10:28:11;100542.69;;;23.64;38.71
50854;BME280;44154;45.506;-122.806;2023-02-14T10:30:39;100538.38;;;23.46;39.15
50854;BME280;44154;45.506;-122.806;2023-02-14T10:33:15;100542.88;;;23.35;39.73
50854;BME280;44154;45.506;-122.806;2023-02-14T10:35:48;100540.50;;;23.22;39.64
50854;BME280;44154;45.506;-122.806;2023-02-14T10:43:39;100525.50;;;22.85;40.66
50854;BME280;44154;45.506;-122.806;2023-02-14T10:51:40;100511.38;;;23.28;41.58
50854;BME280;44154;45.506;-122.806;2023-02-14T10:54:20;100510.19;;;23.63;39.72
50854;BME280;44154;45.506;-122.806;2023-02-14T10:57:03;100502.66;;;23.75;38.89
50854;BME280;44154;45.506;-122.806;2023-02-14T10:59:45;100502.03;;;23.68;38.94
50854;BME280;44154;45.506;-122.806;2023-02-14T11:02:15;100496.63;;;23.51;39.29
50854;BME280;44154;45.506;-122.806;2023-02-14T11:04:42;100481.66;;;23.31;39.35
50854;BME280;44154;45.506;-122.806;2023-02-14T11:07:15;100486.16;;;23.20;40.04
50854;BME280;44154;45.506;-122.806;2023-02-14T11:09:42;100478.31;;;23.07;40.76
50854;BME280;44154;45.506;-122.806;2023-02-14T11:12:08;100480.91;;;22.97;40.83
50854;BME280;44154;45.506;-122.806;2023-02-14T11:14:36;100461.91;;;22.85;41.55
50854;BME280;44154;45.506;-122.806;2023-02-14T11:17:32;100467.25;;;23.14;41.58
50854;BME280;44154;45.506;-122.806;2023-02-14T11:20:24;100465.84;;;23.55;39.92
50854;BME280;44154;45.506;-122.806;2023-02-14T11:22:52;100459.03;;;23.85;39.55
50854;BME280;44154;45.506;-122.806;2023-02-14T11:25:25;100457.41;;;23.84;38.36
50854;BME280;44154;45.506;-122.806;2023-02-14T11:28:12;100468.22;;;23.74;38.88
50854;BME280;44154;45.506;-122.806;2023-02-14T11:30:42;100470.44;;;23.55;39.09
50854;BME280;44154;45.506;-122.806;2023-02-14T11:33:38;100482.81;;;23.35;39.46
50854;BME280;44154;45.506;-122.806;2023-02-14T11:36:13;100488.84;;;23.15;39.97
50854;BME280;44154;45.506;-122.806;2023-02-14T11:38:42;100499.34;;;23.07;40.32
50854;BME280;44154;45.506;-122.806;2023-02-14T11:41:12;100486.03;;;22.93;40.56
50854;BME280;44154;45.506;-122.806;2023-02-14T11:43:41;100485.72;;;22.90;41.41
50854;BME280;44154;45.506;-122.806;2023-02-14T11:51:35;100453.75;;;23.51;39.77
50854;BME280;44154;45.506;-122.806;2023-02-14T11:54:05;100478.13;;;23.58;39.28
50854;BME280;44154;45.506;-122.806;2023-02-14T11:56:53;100482.03;;;23.40;39.47
50854;BME280;44154;45.506;-122.806;2023-02-14T11:59:34;100478.81;;;23.21;40.18
50854;BME280;44154;45.506;-122.806;2023-02-14T12:02:12;100477.75;;;23.05;40.54
50854;BME280;44154;45.506;-122.806;2023-02-14T12:04:40;100471.00;;;22.91;40.57
50854;BME280;44154;45.506;-122.806;2023-02-14T12:07:18;100475.97;;;22.77;40.86
50854;BME280;44154;45.506;-122.806;2023-02-14T12:09:46;100462.25;;;22.72;41.54
50854;BME280;44154;45.506;-122.806;2023-02-14T12:12:19;100481.03;;;23.07;41.27
50854;BME280;44154;45.506;-122.806;2023-02-14T12:14:46;100483.50;;;23.26;40.73
50854;BME280;44154;45.506;-122.806;2023-02-14T12:19:48;100486.97;;;23.43;39.58
50854;BME280;44154;45.506;-122.806;2023-02-14T12:22:22;100488.69;;;23.27;39.65
50854;BME280;44154;45.506;-122.806;2023-02-14T12:27:35;100505.38;;;22.92;40.24
50854;BME280;44154;45.506;-122.806;2023-02-14T12:30:13;100505.75;;;22.78;40.69
50854;BME280;44154;45.506;-122.806;2023-02-14T12:32:51;100509.38;;;22.67;40.80
50854;BME280;44154;45.506;-122.806;2023-02-14T12:37:56;100511.34;;;22.89;41.27
50854;BME280;44154;45.506;-122.806;2023-02-14T12:43:21;100511.75;;;23.36;39.59
50854;BME280;44154;45.506;-122.806;2023-02-14T12:54:18;100511.03;;;22.85;40.24
50854;BME280;44154;45.506;-122.806;2023-02-14T13:08:01;100509.22;;;23.30;39.44
50854;BME280;44154;45.506;-122.806;2023-02-14T13:10:50;100516.47;;;23.41;39.31
50854;BME280;44154;45.506;-122.806;2023-02-14T13:16:33;100530.84;;;23.14;39.60
50854;BME280;44154;45.506;-122.806;2023-02-14T13:21:45;100520.38;;;22.72;40.16
50854;BME280;44154;45.506;-122.806;2023-02-14T13:26:42;100540.88;;;22.58;41.07
50854;BME280;44154;45.506;-122.806;2023-02-14T13:29:13;100544.03;;;22.83;40.89
50854;BME280;44154;45.506;-122.806;2023-02-14T13:31:41;100549.03;;;23.26;40.16
50854;BME280;44154;45.506;-122.806;2023-02-14T13:34:24;100541.59;;;23.43;39.77
50854;BME280;44154;45.506;-122.806;2023-02-14T13:36:54;100525.34;;;23.53;39.32
50854;BME280;44154;45.506;-122.806;2023-02-14T13:39:33;100550.38;;;23.89;38.32
50854;BME280;44154;45.506;-122.806;2023-02-14T13:42:00;100560.50;;;23.89;38.13
50854;BME280;44154;45.506;-122.806;2023-02-14T13:47:21;100559.00;;;23.59;38.78
50854;BME280;44154;45.506;-122.806;2023-02-14T13:49:58;100567.78;;;23.39;38.98
50854;BME280;44154;45.506;-122.806;2023-02-14T13:55:12;100572.69;;;23.20;39.91
50854;BME280;44154;45.506;-122.806;2023-02-14T13:57:40;100578.13;;;23.37;39.87
50854;BME280;44154;45.506;-122.806;2023-02-14T14:11:00;100570.78;;;23.60;38.29
50854;BME280;44154;45.506;-122.806;2023-02-14T14:22:21;100597.41;;;23.30;39.68
50854;BME280;44154;45.506;-122.806;2023-02-14T14:25:05;100598.53;;;23.51;39.34
50854;BME280;44154;45.506;-122.806;2023-02-14T14:27:44;100595.56;;;23.75;38.44
50854;BME280;44154;45.506;-122.806;2023-02-14T14:30:18;100607.03;;;23.94;37.91
50854;BME280;44154;45.506;-122.806;2023-02-14T14:32:45;100619.31;;;23.92;37.83
50854;BME280;44154;45.506;-122.806;2023-02-14T14:35:19;100623.22;;;23.79;38.05
50854;BME280;44154;45.506;-122.806;2023-02-14T14:40:26;100629.66;;;23.50;38.41
50854;BME280;44154;45.506;-122.806;2023-02-14T14:42:56;100629.44;;;23.35;38.59
50854;BME280;44154;45.506;-122.806;2023-02-14T14:45:28;100612.75;;;23.14;39.39
50854;BME280;44154;45.506;-122.806;2023-02-14T14:47:58;100640.44;;;23.40;39.21
50854;BME280;44154;45.506;-122.806;2023-02-14T14:50:28;100645.34;;;23.77;38.18
50854;BME280;44154;45.506;-122.806;2023-02-14T14:53:04;100654.94;;;24.24;37.29
50854;BME280;44154;45.506;-122.806;2023-02-14T14:55:39;100664.91;;;24.35;36.85
50854;BME280;44154;45.506;-122.806;2023-02-14T15:00:54;100674.94;;;24.24;36.58
50854;BME280;44154;45.506;-122.806;2023-02-14T15:03:24;100687.88;;;24.12;36.49
50854;BME280;44154;45.506;-122.806;2023-02-14T15:05:51;100673.72;;;23.93;36.41
50854;BME280;44154;45.506;-122.806;2023-02-14T15:08:29;100677.63;;;23.80;36.71